createdAt,value
2019-01-23T00:02:58.545Z,16.70
2019-01-23T00:08:14.033Z,16.07
2019-01-23T00:13:29.489Z,16.17
2019-01-23T00:18:44.924Z,16.10
2019-01-23T00:24:00.601Z,15.13
2019-01-23T00:29:16.565Z,17.03
2019-01-23T00:34:32.579Z,14.23
2019-01-23T00:39:48.242Z,14.47
2019-01-23T00:45:04.046Z,15.67
2019-01-23T00:50:19.338Z,16.80
2019-01-23T00:55:35.168Z,15.83
2019-01-23T01:00:51.509Z,16.50
2019-01-23T01:06:07.038Z,16.33
2019-01-23T01:11:23.526Z,15.93
2019-01-23T01:16:38.717Z,16.03
2019-01-23T01:21:54.858Z,15.57
2019-01-23T01:27:10.272Z,14.53
2019-01-23T01:32:25.787Z,15.67
2019-01-23T01:37:41.504Z,15.93
2019-01-23T01:42:57.044Z,16.90
2019-01-23T01:48:12.516Z,15.67
2019-01-23T01:53:29.366Z,12.43
2019-01-23T01:58:45.395Z,17.20
2019-01-23T02:04:01.701Z,10.83
2019-01-23T02:09:16.949Z,14.53
2019-01-23T02:14:32.944Z,13.80
2019-01-23T02:19:48.400Z,13.60
2019-01-23T02:25:04.202Z,14.07
2019-01-23T02:30:19.511Z,13.93
2019-01-23T02:35:35.267Z,13.27
2019-01-23T02:40:50.514Z,10.70
2019-01-23T02:46:06.216Z,13.37
2019-01-23T02:51:09.653Z,12.87
2019-01-23T02:56:32.665Z,13.87
2019-01-23T03:01:55.446Z,9.93
2019-01-23T03:07:18.188Z,12.63
2019-01-23T03:12:40.952Z,12.83
2019-01-23T03:18:03.976Z,12.00
2019-01-23T03:29:00.628Z,10.93
2019-01-23T03:34:23.397Z,11.50
2019-01-23T03:39:39.281Z,13.33
2019-01-23T03:44:54.965Z,13.73
2019-01-23T03:50:10.906Z,12.20
2019-01-23T03:55:26.481Z,12.97
2019-01-23T04:00:41.717Z,9.50
2019-01-23T04:05:57.749Z,12.90
2019-01-23T04:11:13.473Z,12.93
2019-01-23T04:16:29.057Z,12.17
2019-01-23T04:21:44.928Z,14.30
2019-01-23T04:27:00.664Z,9.13
2019-01-23T04:32:16.934Z,14.33
2019-01-23T04:37:32.509Z,14.20
2019-01-23T04:42:48.363Z,14.50
2019-01-23T04:48:04.266Z,12.23
2019-01-23T04:53:19.896Z,14.57
2019-01-23T04:58:42.660Z,13.67
2019-01-23T05:04:05.694Z,22.10
2019-01-23T05:09:28.706Z,15.70
2019-01-23T05:14:51.469Z,14.43
2019-01-23T05:20:15.248Z,12.97
2019-01-23T05:25:38.264Z,15.23
2019-01-23T05:31:01.034Z,15.23
2019-01-23T05:36:24.041Z,16.20
2019-01-23T05:41:40.017Z,15.83
2019-01-23T05:46:55.550Z,17.10
2019-01-23T05:52:11.064Z,17.83
2019-01-23T05:57:26.669Z,17.00
2019-01-23T06:02:43.036Z,16.57
2019-01-23T06:07:46.704Z,15.60
2019-01-23T06:13:09.705Z,16.47
2019-01-23T06:18:32.472Z,16.73
2019-01-23T06:23:55.300Z,16.53
2019-01-23T06:29:18.076Z,16.43
2019-01-23T06:34:41.099Z,17.60
2019-01-23T06:39:57.170Z,14.03
2019-01-23T06:45:12.694Z,16.13
2019-01-23T06:50:28.250Z,17.43
2019-01-23T06:55:43.486Z,17.40
2019-01-23T07:01:00.080Z,16.60
2019-01-23T07:06:15.709Z,17.03
2019-01-23T07:11:31.181Z,17.07
2019-01-23T07:16:46.437Z,17.63
2019-01-23T07:22:02.148Z,17.43
2019-01-23T07:27:18.493Z,17.23
2019-01-23T07:32:34.017Z,17.40
2019-01-23T07:37:49.793Z,16.80
2019-01-23T07:43:05.576Z,16.37
2019-01-23T07:48:21.673Z,16.30
2019-01-23T07:53:37.173Z,16.30
2019-01-23T07:58:53.361Z,17.00
2019-01-23T08:04:09.045Z,17.27
2019-01-23T08:09:25.353Z,17.53
2019-01-23T08:14:42.037Z,17.23
2019-01-23T08:19:57.557Z,16.80
2019-01-23T08:25:13.150Z,16.73
2019-01-23T08:30:28.729Z,16.30
2019-01-23T08:35:44.753Z,16.37
2019-01-23T08:41:01.005Z,17.17
2019-01-23T08:46:17.230Z,17.80
2019-01-23T08:51:32.918Z,17.27
2019-01-23T08:56:48.460Z,18.17
2019-01-23T09:02:04.331Z,17.70
2019-01-23T09:07:19.958Z,16.43
2019-01-23T09:12:35.417Z,16.13
2019-01-23T09:17:51.109Z,16.97
2019-01-23T09:23:06.354Z,16.40
2019-01-23T09:28:21.668Z,16.80
2019-01-23T09:33:37.462Z,15.57
2019-01-23T09:44:27.461Z,17.30
2019-01-23T09:49:42.741Z,16.83
2019-01-23T09:54:57.961Z,16.17
2019-01-23T10:00:13.553Z,15.20
2019-01-23T10:05:29.682Z,17.80
2019-01-23T10:10:44.857Z,15.87
2019-01-23T10:16:00.165Z,17.20
2019-01-23T10:21:15.536Z,16.40
2019-01-23T10:26:31.401Z,15.87
2019-01-23T10:31:46.792Z,15.73
2019-01-23T10:37:02.364Z,16.27
2019-01-23T10:42:17.725Z,15.90
2019-01-23T10:47:33.452Z,15.83
2019-01-23T10:52:48.822Z,15.67
2019-01-23T10:58:04.669Z,16.97
2019-01-23T11:03:20.101Z,16.40
2019-01-23T11:08:36.314Z,16.83
2019-01-23T11:13:51.853Z,16.17
2019-01-23T11:19:08.082Z,15.67
2019-01-23T11:24:23.457Z,18.17
2019-01-23T11:29:39.258Z,16.83
2019-01-23T11:34:54.437Z,16.20
2019-01-23T11:40:10.607Z,16.07
2019-01-23T11:45:26.067Z,16.40
2019-01-23T11:50:41.630Z,15.87
2019-01-23T11:55:57.034Z,17.27
2019-01-23T12:01:12.309Z,15.90
2019-01-23T12:06:27.850Z,15.43
2019-01-23T12:11:43.599Z,14.93
2019-01-23T12:16:59.089Z,15.77
2019-01-23T12:22:14.613Z,15.90
2019-01-23T12:27:29.913Z,16.50
2019-01-23T12:32:45.758Z,15.33
2019-01-23T12:38:01.622Z,17.13
2019-01-23T12:43:17.020Z,15.83
2019-01-23T12:48:33.365Z,16.27
2019-01-23T12:53:48.586Z,16.07
2019-01-23T12:59:05.221Z,16.00
2019-01-23T13:04:21.170Z,16.17
2019-01-23T13:09:36.865Z,17.90
2019-01-23T13:14:52.461Z,17.57
2019-01-23T13:20:08.587Z,17.07
2019-01-23T13:25:24.474Z,17.80
2019-01-23T13:30:40.337Z,19.17
2019-01-23T13:35:56.701Z,19.70
2019-01-23T13:41:12.006Z,20.63
2019-01-23T13:46:27.540Z,21.77
2019-01-23T13:51:43.062Z,20.00
2019-01-23T13:57:02.686Z,18.27
2019-01-23T14:02:18.070Z,21.23
2019-01-23T14:07:33.576Z,19.50
2019-01-23T14:12:50.013Z,18.67
2019-01-23T14:18:05.359Z,19.17
2019-01-23T14:23:09.033Z,18.90
2019-01-23T14:28:31.796Z,17.80
2019-01-23T14:33:54.826Z,18.07
2019-01-23T14:39:10.793Z,17.60
2019-01-23T14:49:47.316Z,16.27
2019-01-23T14:55:02.753Z,16.90
2019-01-23T15:00:18.391Z,17.93
2019-01-23T15:05:33.913Z,16.67
2019-01-23T15:10:50.098Z,16.97
2019-01-23T15:16:05.413Z,18.93
2019-01-23T15:21:21.253Z,18.00
2019-01-23T15:26:36.877Z,17.63
2019-01-23T15:31:52.687Z,16.93
2019-01-23T15:37:08.014Z,17.33
2019-01-23T15:42:23.502Z,17.57
2019-01-23T15:47:38.998Z,16.87
2019-01-23T15:52:54.717Z,17.10
2019-01-23T15:58:10.113Z,18.43
2019-01-23T16:03:26.198Z,17.23
2019-01-23T16:08:41.705Z,17.83
2019-01-23T16:13:57.233Z,17.10
2019-01-23T16:19:12.742Z,17.67
2019-01-23T16:24:28.569Z,17.03
2019-01-23T16:29:44.491Z,17.93
2019-01-23T16:35:00.939Z,15.73
2019-01-23T16:40:16.173Z,18.70
2019-01-23T16:45:31.886Z,17.03
2019-01-23T16:50:47.357Z,17.93
2019-01-23T16:56:03.601Z,18.13
2019-01-23T17:01:18.866Z,19.13
2019-01-23T17:06:34.753Z,17.57
2019-01-23T17:11:50.292Z,17.43
2019-01-23T17:17:06.107Z,17.13
2019-01-23T17:22:24.532Z,16.40
2019-01-23T17:27:40.077Z,17.50
2019-01-23T17:32:56.461Z,17.03
2019-01-23T17:38:12.266Z,16.97
2019-01-23T17:43:28.618Z,16.97
2019-01-23T17:48:44.806Z,15.83
2019-01-23T17:54:00.743Z,16.67
2019-01-23T17:59:16.576Z,17.23
2019-01-23T18:04:32.185Z,17.27
2019-01-23T18:09:47.605Z,17.73
2019-01-23T18:15:03.536Z,16.37
2019-01-23T18:20:19.130Z,16.30
2019-01-23T18:25:34.868Z,18.10
2019-01-23T18:30:50.617Z,16.20
2019-01-23T18:36:32.722Z,16.10
2019-01-23T18:41:48.841Z,16.80
2019-01-23T18:47:04.386Z,15.73
2019-01-23T18:52:19.933Z,17.40
2019-01-23T18:57:36.153Z,17.57
2019-01-23T19:02:39.589Z,16.90
2019-01-23T19:08:02.421Z,16.83
2019-01-23T19:13:25.185Z,15.90
2019-01-23T19:18:47.954Z,16.00
2019-01-23T19:24:10.961Z,17.40
2019-01-23T19:29:33.717Z,15.33
2019-01-23T19:34:56.563Z,16.23
2019-01-23T19:40:14.442Z,17.07
2019-01-23T19:45:29.881Z,17.87
2019-01-23T19:50:45.852Z,16.10
2019-01-23T19:56:01.515Z,15.90
2019-01-23T20:01:17.190Z,16.40
2019-01-23T20:06:32.935Z,18.17
2019-01-23T20:11:49.059Z,17.40
2019-01-23T20:17:04.758Z,17.90
2019-01-23T20:22:20.638Z,16.77
2019-01-23T20:27:36.874Z,17.17
2019-01-23T20:32:55.107Z,17.33
2019-01-23T20:38:11.108Z,17.00
2019-01-23T20:43:27.305Z,17.37
2019-01-23T20:48:42.725Z,16.90
2019-01-23T20:53:58.670Z,17.23
2019-01-23T20:59:14.375Z,18.83
2019-01-23T21:04:29.553Z,16.83
2019-01-23T21:09:45.167Z,17.23
2019-01-23T21:15:01.511Z,17.57
2019-01-23T21:20:17.241Z,17.33
2019-01-23T21:25:32.785Z,17.97
2019-01-23T21:30:49.105Z,17.83
2019-01-23T21:36:04.697Z,17.37
2019-01-23T21:41:21.402Z,18.13
2019-01-23T21:46:37.505Z,18.30
2019-01-23T21:51:53.418Z,17.47
2019-01-23T21:57:09.343Z,16.90
2019-01-23T22:02:25.584Z,18.30
2019-01-23T22:07:41.564Z,18.83
2019-01-23T22:12:57.234Z,18.67
2019-01-23T22:18:00.672Z,19.17
2019-01-23T22:23:23.449Z,17.63
2019-01-23T22:28:47.325Z,19.07
2019-01-23T22:34:10.402Z,19.00
2019-01-23T22:39:26.035Z,18.77
2019-01-23T22:44:41.465Z,17.80
2019-01-23T22:49:57.377Z,19.40
2019-01-23T22:55:13.200Z,18.20
2019-01-23T23:00:30.645Z,18.07
2019-01-23T23:05:46.234Z,19.23
2019-01-23T23:11:01.678Z,18.87
2019-01-23T23:16:17.110Z,18.03
2019-01-23T23:21:32.297Z,19.07
2019-01-23T23:26:48.309Z,19.00
2019-01-23T23:32:03.907Z,18.43
2019-01-23T23:37:19.440Z,19.03
2019-01-23T23:42:35.028Z,18.70
2019-01-23T23:47:50.693Z,18.80
2019-01-23T23:53:06.385Z,18.50
2019-01-23T23:58:22.440Z,18.97
